createdAt,value
2023-01-30T00:00:36.835Z,1011.72
2023-01-30T00:01:22.758Z,1011.51
2023-01-30T00:02:08.816Z,1011.51
2023-01-30T00:02:54.726Z,1011.51
2023-01-30T00:03:40.826Z,1011.51
2023-01-30T00:04:27.362Z,1011.61
2023-01-30T00:05:12.877Z,1011.61
2023-01-30T00:05:58.760Z,1011.51
2023-01-30T00:06:44.823Z,1011.89
2023-01-30T00:07:30.856Z,1011.78
2023-01-30T00:08:16.804Z,1011.78
2023-01-30T00:09:02.783Z,1011.72
2023-01-30T00:09:48.826Z,1011.61
2023-01-30T00:10:34.848Z,1011.61
2023-01-30T00:11:20.915Z,1011.41
2023-01-30T00:12:06.816Z,1011.41
2023-01-30T00:12:52.895Z,1011.51
2023-01-30T00:13:38.788Z,1011.51
2023-01-30T00:14:24.907Z,1011.72
2023-01-30T00:15:10.933Z,1011.72
2023-01-30T00:15:56.866Z,1011.72
2023-01-30T00:16:43.021Z,1011.61
2023-01-30T00:17:28.877Z,1011.51
2023-01-30T00:18:14.881Z,1011.51
2023-01-30T00:19:00.841Z,1011.51
2023-01-30T00:19:46.810Z,1011.61
2023-01-30T00:20:32.945Z,1011.21
2023-01-30T00:21:18.767Z,1011.61
2023-01-30T00:22:04.874Z,1011.61
2023-01-30T00:23:00.571Z,1011.31
2023-01-30T00:23:36.836Z,1011.51
2023-01-30T00:24:22.875Z,1011.21
2023-01-30T00:25:08.961Z,1011.21
2023-01-30T00:25:54.881Z,1011.51
2023-01-30T00:26:40.961Z,1011.61
2023-01-30T00:27:27.325Z,1011.51
2023-01-30T00:28:12.842Z,1011.51
2023-01-30T00:28:58.870Z,1011.51
2023-01-30T00:29:57.579Z,1011.31
2023-01-30T00:30:30.997Z,1011.31
2023-01-30T00:31:16.854Z,1011.31
2023-01-30T00:32:02.889Z,1011.31
2023-01-30T00:32:48.883Z,1011.21
2023-01-30T00:33:34.931Z,1011.61
2023-01-30T00:34:20.861Z,1011.41
2023-01-30T00:35:06.837Z,1011.41
2023-01-30T00:35:53.072Z,1011.31
2023-01-30T00:36:38.871Z,1011.41
2023-01-30T00:37:24.881Z,1011.51
2023-01-30T00:38:10.859Z,1011.51
2023-01-30T00:38:56.840Z,1011.41
2023-01-30T00:39:42.911Z,1011.31
2023-01-30T00:40:28.921Z,1011.31
2023-01-30T00:41:14.982Z,1011.31
2023-01-30T00:42:00.907Z,1011.51
2023-01-30T00:42:46.845Z,1011.61
2023-01-30T00:43:32.954Z,1011.31
2023-01-30T00:44:18.826Z,1011.41
2023-01-30T00:45:04.978Z,1011.41
2023-01-30T00:45:50.937Z,1011.61
2023-01-30T00:46:36.851Z,1011.31
2023-01-30T00:47:22.877Z,1011.00
2023-01-30T00:48:08.979Z,1011.00
2023-01-30T00:48:54.851Z,1011.21
2023-01-30T00:49:40.972Z,1010.90
2023-01-30T00:50:27.374Z,1010.90
2023-01-30T00:51:13.038Z,1010.90
2023-01-30T00:51:58.875Z,1011.11
2023-01-30T00:52:44.955Z,1010.80
2023-01-30T00:53:31.008Z,1010.70
2023-01-30T00:54:16.941Z,1010.70
2023-01-30T00:55:02.968Z,1010.50
2023-01-30T00:55:48.899Z,1010.40
2023-01-30T00:56:35.055Z,1010.70
2023-01-30T00:57:21.056Z,1010.60
2023-01-30T00:58:07.238Z,1010.60
2023-01-30T00:58:52.982Z,1010.70
2023-01-30T00:59:38.922Z,1010.60
2023-01-30T01:00:25.055Z,1010.80
2023-01-30T01:01:10.933Z,1010.80
2023-01-30T01:01:56.958Z,1010.50
2023-01-30T01:02:42.970Z,1010.60
2023-01-30T01:03:28.982Z,1010.60
2023-01-30T01:04:15.081Z,1010.60
2023-01-30T01:05:00.938Z,1010.50
2023-01-30T01:05:46.892Z,1010.60
2023-01-30T01:06:32.942Z,1010.40
2023-01-30T01:07:20.685Z,1010.50
2023-01-30T01:08:04.951Z,1010.50
2023-01-30T01:08:50.939Z,1010.60
2023-01-30T01:09:36.938Z,1010.40
2023-01-30T01:10:23.012Z,1010.70
2023-01-30T01:11:09.103Z,1010.70
2023-01-30T01:11:55.016Z,1010.60
2023-01-30T01:12:41.018Z,1010.50
2023-01-30T01:13:27.467Z,1010.80
2023-01-30T01:14:12.997Z,1010.80
2023-01-30T01:14:59.078Z,1010.50
2023-01-30T01:15:45.040Z,1010.80
2023-01-30T01:16:31.076Z,1010.50
2023-01-30T01:17:16.926Z,1010.50
2023-01-30T01:18:02.997Z,1010.40
2023-01-30T01:18:48.945Z,1010.60
2023-01-30T01:19:35.057Z,1010.50
2023-01-30T01:20:21.079Z,1010.40
2023-01-30T01:21:06.995Z,1010.40
2023-01-30T01:21:52.989Z,1010.60
2023-01-30T01:22:39.134Z,1010.60
2023-01-30T01:23:25.099Z,1010.50
2023-01-30T01:24:11.049Z,1010.50
2023-01-30T01:24:57.088Z,1010.70
2023-01-30T01:25:43.194Z,1010.80
2023-01-30T01:26:29.072Z,1010.80
2023-01-30T01:27:15.137Z,1010.80
2023-01-30T01:28:01.125Z,1010.80
2023-01-30T01:28:47.065Z,1010.50
2023-01-30T01:29:33.182Z,1010.80
2023-01-30T01:30:19.158Z,1010.90
2023-01-30T01:31:05.134Z,1010.90
2023-01-30T01:31:51.203Z,1010.80
2023-01-30T01:32:37.027Z,1010.90
2023-01-30T01:33:23.084Z,1010.90
2023-01-30T01:34:09.102Z,1010.90
2023-01-30T01:34:55.166Z,1011.00
2023-01-30T01:35:41.126Z,1010.80
2023-01-30T01:36:53.314Z,1011.11
2023-01-30T01:37:13.186Z,1011.11
2023-01-30T01:37:59.044Z,1010.80
2023-01-30T01:38:45.150Z,1010.90
2023-01-30T01:39:31.191Z,1011.00
2023-01-30T01:40:16.324Z,1011.00
2023-01-30T01:41:03.144Z,1010.80
2023-01-30T01:41:49.099Z,1010.70
2023-01-30T01:42:35.223Z,1010.50
2023-01-30T01:43:21.311Z,1010.70
2023-01-30T01:44:07.022Z,1010.70
2023-01-30T01:44:53.125Z,1010.50
2023-01-30T01:45:39.202Z,1010.40
2023-01-30T01:46:25.162Z,1010.40
2023-01-30T01:47:11.133Z,1010.40
2023-01-30T01:47:57.125Z,1010.50
2023-01-30T01:48:43.155Z,1010.60
2023-01-30T01:49:29.095Z,1010.60
2023-01-30T01:50:15.165Z,1010.60
2023-01-30T01:51:01.131Z,1010.60
2023-01-30T01:51:47.147Z,1010.70
2023-01-30T01:52:33.171Z,1010.40
2023-01-30T01:53:19.094Z,1010.40
2023-01-30T01:54:05.131Z,1010.40
2023-01-30T01:54:51.214Z,1010.19
2023-01-30T01:55:37.103Z,1010.29
2023-01-30T01:56:23.093Z,1009.99
2023-01-30T01:57:09.115Z,1009.99
2023-01-30T01:57:55.133Z,1010.29
2023-01-30T01:58:41.156Z,1010.40
2023-01-30T01:59:27.861Z,1009.99
2023-01-30T02:00:13.243Z,1009.99
2023-01-30T02:00:59.138Z,1010.29
2023-01-30T02:01:45.193Z,1010.19
2023-01-30T02:02:31.099Z,1010.50
2023-01-30T02:03:17.132Z,1010.50
2023-01-30T02:04:03.131Z,1010.29
2023-01-30T02:04:49.139Z,1010.29
2023-01-30T02:05:35.185Z,1010.50
2023-01-30T02:06:21.136Z,1010.40
2023-01-30T02:07:07.118Z,1010.40
2023-01-30T02:07:53.199Z,1010.29
2023-01-30T02:08:39.173Z,1010.29
2023-01-30T02:09:25.233Z,1010.60
2023-01-30T02:10:11.198Z,1010.60
2023-01-30T02:10:57.938Z,1010.19
2023-01-30T02:11:43.234Z,1010.29
2023-01-30T02:12:29.134Z,1010.19
2023-01-30T02:13:15.273Z,1010.19
2023-01-30T02:14:01.176Z,1010.29
2023-01-30T02:14:47.243Z,1010.19
2023-01-30T02:15:33.349Z,1010.40
2023-01-30T02:16:19.175Z,1010.50
2023-01-30T02:17:05.250Z,1010.50
2023-01-30T02:17:51.295Z,1009.99
2023-01-30T02:18:37.175Z,1010.09
2023-01-30T02:19:23.138Z,1010.19
2023-01-30T02:20:09.214Z,1010.19
2023-01-30T02:20:55.194Z,1010.29
2023-01-30T02:21:41.256Z,1010.29
2023-01-30T02:22:27.749Z,1010.09
2023-01-30T02:23:13.346Z,1010.09
2023-01-30T02:23:59.214Z,1009.99
2023-01-30T02:24:45.270Z,1010.19
2023-01-30T02:25:31.260Z,1009.99
2023-01-30T02:26:17.258Z,1009.99
2023-01-30T02:27:03.338Z,1010.09
2023-01-30T02:27:49.246Z,1010.09
2023-01-30T02:28:35.374Z,1009.99
2023-01-30T02:29:21.299Z,1009.99
2023-01-30T02:30:07.345Z,1009.99
2023-01-30T02:30:53.351Z,1009.68
2023-01-30T02:31:39.386Z,1009.99
2023-01-30T02:32:25.339Z,1009.79
2023-01-30T02:33:11.349Z,1009.79
2023-01-30T02:33:57.210Z,1009.89
2023-01-30T02:34:43.201Z,1009.89
2023-01-30T02:35:29.275Z,1009.89
2023-01-30T02:36:15.290Z,1009.89
2023-01-30T02:37:01.339Z,1009.89
2023-01-30T02:37:47.272Z,1009.99
2023-01-30T02:38:33.375Z,1009.79
2023-01-30T02:39:19.234Z,1009.79
2023-01-30T02:40:05.295Z,1009.79
2023-01-30T02:40:51.306Z,1009.89
2023-01-30T02:41:37.199Z,1009.89
2023-01-30T02:42:23.301Z,1009.99
2023-01-30T02:43:09.290Z,1009.99
2023-01-30T02:43:55.302Z,1009.79
2023-01-30T02:44:41.334Z,1009.99
2023-01-30T02:45:28.211Z,1009.79
2023-01-30T02:46:13.418Z,1009.79
2023-01-30T02:46:59.227Z,1010.09
2023-01-30T02:47:45.325Z,1010.09
2023-01-30T02:48:31.307Z,1009.99
2023-01-30T02:49:17.299Z,1009.99
2023-01-30T02:50:03.343Z,1010.19
2023-01-30T02:50:49.270Z,1010.09
2023-01-30T02:51:35.321Z,1009.99
2023-01-30T02:52:21.376Z,1009.89
2023-01-30T02:53:07.349Z,1009.89
2023-01-30T02:53:53.346Z,1009.89
2023-01-30T02:54:39.332Z,1009.89
2023-01-30T02:55:25.266Z,1009.99
2023-01-30T02:56:11.306Z,1009.99
2023-01-30T02:56:57.326Z,1009.99
2023-01-30T02:57:43.441Z,1009.99
2023-01-30T02:58:29.292Z,1010.19
2023-01-30T02:59:15.339Z,1010.19
2023-01-30T03:00:01.736Z,1009.99
2023-01-30T03:00:47.365Z,1010.09
2023-01-30T03:01:33.424Z,1009.99
2023-01-30T03:02:19.313Z,1009.79
2023-01-30T03:03:05.490Z,1009.79
2023-01-30T03:03:51.298Z,1009.99
2023-01-30T03:04:37.481Z,1009.89
2023-01-30T03:05:23.332Z,1009.68
2023-01-30T03:06:09.373Z,1009.68
2023-01-30T03:06:55.313Z,1010.19
2023-01-30T03:07:41.357Z,1009.79
2023-01-30T03:08:28.103Z,1009.89
2023-01-30T03:09:13.297Z,1009.89
2023-01-30T03:09:59.333Z,1009.89
2023-01-30T03:10:45.411Z,1009.89
2023-01-30T03:11:31.347Z,1009.79
2023-01-30T03:12:17.305Z,1009.79
2023-01-30T03:13:03.497Z,1009.58
2023-01-30T03:13:49.321Z,1009.89
2023-01-30T03:14:35.373Z,1009.79
2023-01-30T03:15:21.773Z,1009.89
2023-01-30T03:16:07.434Z,1009.89
2023-01-30T03:16:53.407Z,1009.79
2023-01-30T03:17:39.372Z,1009.89
2023-01-30T03:18:25.344Z,1009.89
2023-01-30T03:19:11.485Z,1009.89
2023-01-30T03:19:57.455Z,1009.79
2023-01-30T03:20:43.323Z,1009.79
2023-01-30T03:21:29.319Z,1009.89
2023-01-30T03:22:15.484Z,1009.89
2023-01-30T03:23:01.376Z,1009.89
2023-01-30T03:23:47.355Z,1009.79
2023-01-30T03:24:33.477Z,1009.58
2023-01-30T03:25:19.880Z,1009.58
2023-01-30T03:26:05.414Z,1009.58
2023-01-30T03:26:51.415Z,1009.68
2023-01-30T03:27:37.427Z,1009.79
2023-01-30T03:28:23.474Z,1009.68
2023-01-30T03:29:09.353Z,1009.68
2023-01-30T03:29:55.414Z,1009.68
2023-01-30T03:30:41.620Z,1009.68
2023-01-30T03:31:28.175Z,1009.79
2023-01-30T03:32:13.408Z,1009.79
2023-01-30T03:32:59.415Z,1009.79
2023-01-30T03:33:45.544Z,1009.89
2023-01-30T03:34:31.366Z,1009.99
2023-01-30T03:35:17.752Z,1009.99
2023-01-30T03:36:03.707Z,1009.89
2023-01-30T03:36:49.400Z,1009.89
2023-01-30T03:37:35.474Z,1009.58
2023-01-30T03:38:21.439Z,1009.89
2023-01-30T03:39:07.544Z,1009.89
2023-01-30T03:39:53.433Z,1009.79
2023-01-30T03:40:39.437Z,1009.58
2023-01-30T03:41:25.514Z,1009.68
2023-01-30T03:42:11.466Z,1009.68
2023-01-30T03:42:57.487Z,1009.79
2023-01-30T03:43:43.540Z,1009.79
2023-01-30T03:44:29.467Z,1009.68
2023-01-30T03:45:16.220Z,1009.68
2023-01-30T03:46:01.443Z,1009.79
2023-01-30T03:46:47.423Z,1009.68
2023-01-30T03:47:33.625Z,1009.79
2023-01-30T03:48:19.422Z,1009.79
2023-01-30T03:49:05.509Z,1009.79
2023-01-30T03:49:51.479Z,1009.79
2023-01-30T03:50:37.476Z,1009.58
2023-01-30T03:51:23.520Z,1009.79
2023-01-30T03:52:09.509Z,1009.79
2023-01-30T03:52:55.490Z,1009.68
2023-01-30T03:53:41.473Z,1009.68
2023-01-30T03:54:28.379Z,1009.89
2023-01-30T03:55:13.550Z,1009.89
2023-01-30T03:55:59.489Z,1009.79
2023-01-30T03:56:45.454Z,1009.89
2023-01-30T03:57:31.411Z,1009.41
2023-01-30T03:58:17.559Z,1009.41
2023-01-30T03:59:03.549Z,1009.51
2023-01-30T03:59:49.473Z,1009.79
2023-01-30T04:00:35.580Z,1009.79
2023-01-30T04:01:21.493Z,1009.79
2023-01-30T04:02:07.584Z,1009.79
2023-01-30T04:02:53.472Z,1009.68
2023-01-30T04:03:39.543Z,1009.51
2023-01-30T04:04:25.423Z,1009.68
2023-01-30T04:05:11.575Z,1009.68
2023-01-30T04:05:57.588Z,1009.68
2023-01-30T04:06:43.495Z,1009.68
2023-01-30T04:07:29.789Z,1009.79
2023-01-30T04:08:15.896Z,1009.79
2023-01-30T04:09:01.581Z,1009.41
2023-01-30T04:09:47.528Z,1009.68
2023-01-30T04:10:33.728Z,1009.41
2023-01-30T04:11:19.662Z,1009.51
2023-01-30T04:12:05.532Z,1009.51
2023-01-30T04:12:51.875Z,1009.58
2023-01-30T04:13:37.514Z,1009.58
2023-01-30T04:14:23.480Z,1009.51
2023-01-30T04:15:09.655Z,1009.51
2023-01-30T04:15:55.582Z,1009.58
2023-01-30T04:16:41.665Z,1009.68
2023-01-30T04:17:28.271Z,1009.58
2023-01-30T04:18:13.541Z,1009.58
2023-01-30T04:18:59.459Z,1009.51
2023-01-30T04:19:45.590Z,1009.31
2023-01-30T04:20:31.528Z,1009.31
2023-01-30T04:21:17.516Z,1009.31
2023-01-30T04:22:03.515Z,1009.21
2023-01-30T04:22:49.571Z,1009.58
2023-01-30T04:23:35.584Z,1009.51
2023-01-30T04:24:21.504Z,1009.41
2023-01-30T04:25:07.580Z,1009.41
2023-01-30T04:25:53.553Z,1009.31
2023-01-30T04:26:39.597Z,1009.51
2023-01-30T04:27:25.604Z,1009.31
2023-01-30T04:28:11.636Z,1009.31
2023-01-30T04:28:57.597Z,1009.11
2023-01-30T04:29:43.609Z,1009.41
2023-01-30T04:30:29.698Z,1009.31
2023-01-30T04:31:15.582Z,1009.31
2023-01-30T04:32:01.555Z,1009.31
2023-01-30T04:32:47.590Z,1009.31
2023-01-30T04:33:33.668Z,1009.41
2023-01-30T04:34:19.587Z,1009.31
2023-01-30T04:35:05.600Z,1009.31
2023-01-30T04:35:51.693Z,1009.41
2023-01-30T04:36:37.660Z,1009.21
2023-01-30T04:37:23.563Z,1009.41
2023-01-30T04:38:09.626Z,1009.41
2023-01-30T04:38:55.616Z,1009.41
2023-01-30T04:39:41.662Z,1009.31
2023-01-30T04:40:27.870Z,1009.31
2023-01-30T04:41:13.649Z,1009.31
2023-01-30T04:41:59.563Z,1009.21
2023-01-30T04:42:45.611Z,1009.41
2023-01-30T04:43:31.571Z,1009.31
2023-01-30T04:44:17.713Z,1009.31
2023-01-30T04:45:03.688Z,1009.11
2023-01-30T04:45:49.579Z,1009.21
2023-01-30T04:46:35.629Z,1009.21
2023-01-30T04:47:21.614Z,1009.21
2023-01-30T04:48:07.631Z,1009.21
2023-01-30T04:48:53.683Z,1009.11
2023-01-30T04:49:39.694Z,1009.21
2023-01-30T04:50:25.550Z,1009.31
2023-01-30T04:51:11.620Z,1009.31
2023-01-30T04:51:57.660Z,1009.01
2023-01-30T04:52:43.667Z,1009.11
2023-01-30T04:53:29.588Z,1009.11
2023-01-30T04:54:15.695Z,1009.11
2023-01-30T04:55:01.671Z,1009.21
2023-01-30T04:55:47.606Z,1009.01
2023-01-30T04:56:33.630Z,1009.31
2023-01-30T04:57:19.850Z,1009.01
2023-01-30T04:58:05.662Z,1009.01
2023-01-30T04:58:51.607Z,1009.01
2023-01-30T04:59:37.760Z,1009.11
2023-01-30T05:00:23.637Z,1009.11
2023-01-30T05:01:09.711Z,1009.11
2023-01-30T05:01:55.693Z,1008.91
2023-01-30T05:02:41.742Z,1008.80
2023-01-30T05:03:27.830Z,1008.91
2023-01-30T05:04:13.608Z,1008.91
2023-01-30T05:04:59.610Z,1008.91
2023-01-30T05:05:45.675Z,1008.80
2023-01-30T05:06:31.589Z,1008.80
2023-01-30T05:07:17.588Z,1008.80
2023-01-30T05:08:03.682Z,1008.80
2023-01-30T05:08:49.635Z,1008.50
2023-01-30T05:09:35.677Z,1008.50
2023-01-30T05:10:21.573Z,1008.60
2023-01-30T05:11:07.540Z,1008.60
2023-01-30T05:11:53.566Z,1008.40
2023-01-30T05:12:39.688Z,1008.60
2023-01-30T05:13:25.582Z,1008.40
2023-01-30T05:14:11.656Z,1008.40
2023-01-30T05:14:57.637Z,1008.50
2023-01-30T05:15:43.710Z,1008.70
2023-01-30T05:16:29.619Z,1008.40
2023-01-30T05:17:15.740Z,1008.40
2023-01-30T05:18:01.653Z,1008.40
2023-01-30T05:18:47.618Z,1008.19
2023-01-30T05:19:33.712Z,1008.40
2023-01-30T05:20:19.657Z,1008.19
2023-01-30T05:21:05.679Z,1008.19
2023-01-30T05:21:51.637Z,1008.40
2023-01-30T05:22:37.678Z,1008.40
2023-01-30T05:23:23.790Z,1008.50
2023-01-30T05:24:09.656Z,1008.50
2023-01-30T05:24:55.631Z,1008.40
2023-01-30T05:25:41.722Z,1008.40
2023-01-30T05:26:27.758Z,1008.30
2023-01-30T05:27:13.652Z,1008.30
2023-01-30T05:27:59.666Z,1008.40
2023-01-30T05:28:45.721Z,1008.30
2023-01-30T05:29:31.795Z,1008.60
2023-01-30T05:30:17.825Z,1008.60
2023-01-30T05:31:03.863Z,1008.19
2023-01-30T05:31:49.753Z,1008.30
2023-01-30T05:32:35.714Z,1008.40
2023-01-30T05:33:21.648Z,1008.50
2023-01-30T05:34:07.730Z,1008.50
2023-01-30T05:34:53.637Z,1008.40
2023-01-30T05:35:39.680Z,1008.30
2023-01-30T05:36:25.699Z,1008.40
2023-01-30T05:37:11.699Z,1008.40
2023-01-30T05:37:59.387Z,1008.40
2023-01-30T05:38:43.690Z,1008.40
2023-01-30T05:39:29.648Z,1008.60
2023-01-30T05:40:15.744Z,1008.60
2023-01-30T05:41:01.673Z,1008.70
2023-01-30T05:41:47.663Z,1008.80
2023-01-30T05:42:33.786Z,1008.60
2023-01-30T05:43:19.744Z,1008.80
2023-01-30T05:44:05.734Z,1008.80
2023-01-30T05:44:51.705Z,1008.91
2023-01-30T05:45:37.856Z,1008.70
2023-01-30T05:46:23.741Z,1008.70
2023-01-30T05:47:09.703Z,1008.70
2023-01-30T05:47:58.582Z,1008.80
2023-01-30T05:48:41.734Z,1008.80
2023-01-30T05:49:27.785Z,1008.91
2023-01-30T05:50:13.752Z,1008.91
2023-01-30T05:50:59.693Z,1008.70
2023-01-30T05:51:45.743Z,1008.60
2023-01-30T05:52:31.713Z,1008.60
2023-01-30T05:53:17.714Z,1008.60
2023-01-30T05:54:03.788Z,1008.70
2023-01-30T05:54:49.748Z,1008.60
2023-01-30T05:55:35.779Z,1008.80
2023-01-30T05:56:21.729Z,1008.60
2023-01-30T05:57:07.766Z,1008.60
2023-01-30T05:57:53.694Z,1008.70
2023-01-30T05:58:39.919Z,1008.60
2023-01-30T05:59:25.746Z,1008.50
2023-01-30T06:00:11.943Z,1008.50
2023-01-30T06:00:57.814Z,1008.50
2023-01-30T06:01:43.743Z,1008.60
2023-01-30T06:02:29.748Z,1008.70
2023-01-30T06:03:15.823Z,1008.70
2023-01-30T06:04:02.398Z,1008.80
2023-01-30T06:04:47.837Z,1008.60
2023-01-30T06:05:33.856Z,1008.50
2023-01-30T06:06:19.778Z,1008.40
2023-01-30T06:07:05.760Z,1008.40
2023-01-30T06:07:51.731Z,1008.40
2023-01-30T06:08:37.807Z,1008.19
2023-01-30T06:09:23.786Z,1008.40
2023-01-30T06:10:10.024Z,1008.40
2023-01-30T06:10:55.811Z,1008.30
2023-01-30T06:11:41.826Z,1008.30
2023-01-30T06:12:27.886Z,1008.09
2023-01-30T06:13:13.801Z,1008.09
2023-01-30T06:13:59.771Z,1008.09
2023-01-30T06:14:45.842Z,1008.19
2023-01-30T06:15:31.864Z,1008.09
2023-01-30T06:16:17.877Z,1008.09
2023-01-30T06:17:04.267Z,1008.19
2023-01-30T06:17:49.785Z,1008.09
2023-01-30T06:18:35.878Z,1008.30
2023-01-30T06:19:21.767Z,1008.09
2023-01-30T06:20:07.839Z,1008.09
2023-01-30T06:20:53.749Z,1008.30
2023-01-30T06:21:39.849Z,1008.19
2023-01-30T06:22:25.765Z,1008.09
2023-01-30T06:23:11.802Z,1008.09
2023-01-30T06:23:57.909Z,1007.79
2023-01-30T06:24:43.769Z,1008.09
2023-01-30T06:25:29.897Z,1007.69
2023-01-30T06:26:15.939Z,1007.69
2023-01-30T06:27:01.868Z,1007.99
2023-01-30T06:27:47.759Z,1007.99
2023-01-30T06:28:33.987Z,1007.89
2023-01-30T06:29:19.848Z,1007.79
2023-01-30T06:30:06.030Z,1007.79
2023-01-30T06:30:51.945Z,1007.69
2023-01-30T06:31:37.883Z,1007.69
2023-01-30T06:32:23.838Z,1007.99
2023-01-30T06:33:09.936Z,1007.99
2023-01-30T06:33:55.862Z,1007.99
2023-01-30T06:34:41.909Z,1007.99
2023-01-30T06:35:27.935Z,1007.89
2023-01-30T06:36:13.841Z,1007.89
2023-01-30T06:36:59.836Z,1007.79
2023-01-30T06:37:45.877Z,1007.89
2023-01-30T06:38:31.996Z,1007.99
2023-01-30T06:39:17.816Z,1007.99
2023-01-30T06:40:03.926Z,1007.99
2023-01-30T06:40:49.871Z,1008.09
2023-01-30T06:41:36.133Z,1007.79
2023-01-30T06:42:21.826Z,1007.99
2023-01-30T06:43:07.951Z,1007.99
2023-01-30T06:43:53.858Z,1008.09
2023-01-30T06:44:39.883Z,1008.30
2023-01-30T06:45:25.987Z,1008.19
2023-01-30T06:46:11.930Z,1008.19
2023-01-30T06:46:57.938Z,1008.40
2023-01-30T06:47:43.950Z,1008.30
2023-01-30T06:48:29.857Z,1008.19
2023-01-30T06:49:15.894Z,1008.19
2023-01-30T06:50:01.860Z,1008.09
2023-01-30T06:50:47.864Z,1007.89
2023-01-30T06:51:33.923Z,1007.99
2023-01-30T06:52:19.886Z,1008.30
2023-01-30T06:53:05.925Z,1008.30
2023-01-30T06:53:53.321Z,1008.30
2023-01-30T06:54:37.944Z,1008.09
2023-01-30T06:55:23.838Z,1008.19
2023-01-30T06:56:10.019Z,1008.19
2023-01-30T06:56:55.884Z,1007.99
2023-01-30T06:57:41.961Z,1008.09
2023-01-30T06:58:27.899Z,1007.99
2023-01-30T06:59:13.976Z,1007.99
2023-01-30T06:59:59.879Z,1008.09
2023-01-30T07:00:45.999Z,1007.89
2023-01-30T07:01:31.957Z,1007.89
2023-01-30T07:02:18.011Z,1007.89
2023-01-30T07:03:04.204Z,1007.99
2023-01-30T07:03:49.962Z,1007.89
2023-01-30T07:04:35.929Z,1008.09
2023-01-30T07:05:21.886Z,1008.09
2023-01-30T07:06:08.022Z,1008.09
2023-01-30T07:06:53.873Z,1007.99
2023-01-30T07:07:39.989Z,1007.99
2023-01-30T07:08:25.944Z,1008.09
2023-01-30T07:09:12.008Z,1008.09
2023-01-30T07:10:07.408Z,1007.99
2023-01-30T07:10:43.957Z,1008.09
2023-01-30T07:11:29.978Z,1007.99
2023-01-30T07:12:16.098Z,1007.99
2023-01-30T07:13:01.942Z,1007.99
2023-01-30T07:13:48.077Z,1008.09
2023-01-30T07:14:34.021Z,1007.79
2023-01-30T07:15:20.516Z,1007.99
2023-01-30T07:16:05.246Z,1007.99
2023-01-30T07:16:51.994Z,1007.89
2023-01-30T07:17:37.965Z,1008.09
2023-01-30T07:18:23.929Z,1007.89
2023-01-30T07:19:10.047Z,1007.89
2023-01-30T07:19:56.125Z,1007.79
2023-01-30T07:20:41.982Z,1008.09
2023-01-30T07:21:28.042Z,1007.99
2023-01-30T07:22:14.017Z,1007.99
2023-01-30T07:23:00.221Z,1007.79
2023-01-30T07:23:46.024Z,1007.99
2023-01-30T07:24:31.971Z,1008.19
2023-01-30T07:25:18.341Z,1008.19
2023-01-30T07:26:04.026Z,1008.09
2023-01-30T07:26:50.034Z,1008.19
2023-01-30T07:27:36.017Z,1007.89
2023-01-30T07:28:22.045Z,1008.19
2023-01-30T07:29:08.023Z,1008.19
2023-01-30T07:29:54.083Z,1007.89
2023-01-30T07:30:40.210Z,1008.09
2023-01-30T07:31:26.141Z,1008.09
2023-01-30T07:32:12.036Z,1008.09
2023-01-30T07:32:58.046Z,1008.19
2023-01-30T07:33:44.091Z,1007.99
2023-01-30T07:34:30.130Z,1007.79
2023-01-30T07:35:16.082Z,1007.79
2023-01-30T07:36:02.588Z,1008.30
2023-01-30T07:36:48.109Z,1008.30
2023-01-30T07:37:34.187Z,1008.09
2023-01-30T07:38:20.152Z,1007.99
2023-01-30T07:39:06.087Z,1007.99
2023-01-30T07:39:52.074Z,1008.09
2023-01-30T07:40:38.024Z,1007.89
2023-01-30T07:41:24.071Z,1007.89
2023-01-30T07:42:10.183Z,1007.89
2023-01-30T07:42:56.112Z,1007.99
2023-01-30T07:43:42.206Z,1007.89
2023-01-30T07:44:28.128Z,1007.99
2023-01-30T07:45:14.190Z,1007.99
2023-01-30T07:46:00.099Z,1007.89
2023-01-30T07:46:46.187Z,1008.40
2023-01-30T07:47:32.150Z,1008.40
2023-01-30T07:48:18.152Z,1008.40
2023-01-30T07:49:04.222Z,1008.09
2023-01-30T07:49:50.156Z,1008.09
2023-01-30T07:50:36.163Z,1007.99
2023-01-30T07:51:22.089Z,1007.99
2023-01-30T07:52:08.171Z,1007.99
2023-01-30T07:52:54.101Z,1008.09
2023-01-30T07:53:40.149Z,1007.89
2023-01-30T07:54:26.165Z,1007.89
2023-01-30T07:55:12.209Z,1007.89
2023-01-30T07:55:58.111Z,1008.09
2023-01-30T07:56:44.173Z,1007.79
2023-01-30T07:57:30.186Z,1008.09
2023-01-30T07:58:16.174Z,1008.09
2023-01-30T07:59:02.112Z,1008.19
2023-01-30T07:59:48.222Z,1007.99
2023-01-30T08:00:34.333Z,1008.30
2023-01-30T08:01:20.235Z,1008.30
2023-01-30T08:02:06.188Z,1008.30
2023-01-30T08:02:52.122Z,1008.30
2023-01-30T08:03:38.166Z,1008.09
2023-01-30T08:04:24.295Z,1008.19
2023-01-30T08:05:10.242Z,1008.19
2023-01-30T08:05:56.203Z,1008.19
2023-01-30T08:06:42.217Z,1007.99
2023-01-30T08:07:28.182Z,1008.19
2023-01-30T08:08:14.145Z,1008.19
2023-01-30T08:09:00.214Z,1007.99
2023-01-30T08:09:46.146Z,1008.19
2023-01-30T08:10:32.172Z,1008.30
2023-01-30T08:11:18.221Z,1008.30
2023-01-30T08:12:04.255Z,1008.09
2023-01-30T08:12:50.296Z,1007.89
2023-01-30T08:13:36.271Z,1008.09
2023-01-30T08:14:22.221Z,1008.30
2023-01-30T08:15:08.313Z,1008.30
2023-01-30T08:15:54.160Z,1008.30
2023-01-30T08:16:40.235Z,1008.09
2023-01-30T08:17:26.213Z,1008.09
2023-01-30T08:18:12.174Z,1008.09
2023-01-30T08:18:58.218Z,1007.99
2023-01-30T08:19:44.352Z,1008.19
2023-01-30T08:20:30.245Z,1008.09
2023-01-30T08:21:16.259Z,1008.09
2023-01-30T08:22:02.165Z,1008.19
2023-01-30T08:22:48.268Z,1008.09
2023-01-30T08:23:34.279Z,1008.40
2023-01-30T08:24:20.211Z,1008.19
2023-01-30T08:25:06.220Z,1008.19
2023-01-30T08:25:52.411Z,1008.09
2023-01-30T08:26:38.293Z,1008.09
2023-01-30T08:27:24.229Z,1007.79
2023-01-30T08:28:10.272Z,1007.79
2023-01-30T08:28:56.306Z,1007.89
2023-01-30T08:29:42.305Z,1007.89
2023-01-30T08:30:28.447Z,1007.99
2023-01-30T08:31:14.357Z,1007.99
2023-01-30T08:32:00.238Z,1007.79
2023-01-30T08:32:46.245Z,1007.99
2023-01-30T08:33:32.200Z,1007.99
2023-01-30T08:34:18.284Z,1007.99
2023-01-30T08:35:04.348Z,1007.99
2023-01-30T08:35:50.274Z,1008.09
2023-01-30T08:36:36.225Z,1007.99
2023-01-30T08:37:22.425Z,1007.89
2023-01-30T08:38:08.487Z,1007.89
2023-01-30T08:38:54.316Z,1007.89
2023-01-30T08:39:40.272Z,1008.09
2023-01-30T08:40:26.292Z,1008.09
2023-01-30T08:41:12.290Z,1008.09
2023-01-30T08:41:58.254Z,1008.09
2023-01-30T08:42:44.247Z,1008.09
2023-01-30T08:43:30.303Z,1008.09
2023-01-30T08:44:16.287Z,1008.09
2023-01-30T08:45:02.513Z,1007.99
2023-01-30T08:45:48.326Z,1008.09
2023-01-30T08:46:34.442Z,1008.40
2023-01-30T08:47:20.301Z,1008.19
2023-01-30T08:48:06.299Z,1008.19
2023-01-30T08:48:52.345Z,1008.30
2023-01-30T08:49:38.321Z,1008.19
2023-01-30T08:50:24.299Z,1007.79
2023-01-30T08:51:10.310Z,1007.79
2023-01-30T08:51:56.296Z,1007.99
2023-01-30T08:52:42.294Z,1007.99
2023-01-30T08:53:28.279Z,1008.09
2023-01-30T08:54:14.339Z,1008.09
2023-01-30T08:55:00.326Z,1007.89
2023-01-30T08:55:46.350Z,1007.89
2023-01-30T08:56:32.336Z,1008.40
2023-01-30T08:57:18.360Z,1008.40
2023-01-30T08:58:04.367Z,1007.99
2023-01-30T08:58:50.368Z,1008.19
2023-01-30T08:59:36.383Z,1008.09
2023-01-30T09:00:22.537Z,1007.99
2023-01-30T09:01:08.423Z,1007.99
2023-01-30T09:01:54.302Z,1008.09
2023-01-30T09:02:40.415Z,1007.79
2023-01-30T09:03:26.340Z,1007.79
2023-01-30T09:04:12.368Z,1007.79
2023-01-30T09:04:58.377Z,1007.79
2023-01-30T09:05:44.447Z,1007.79
2023-01-30T09:06:30.374Z,1007.69
2023-01-30T09:07:16.401Z,1007.69
2023-01-30T09:08:02.570Z,1007.79
2023-01-30T09:08:48.347Z,1007.58
2023-01-30T09:09:34.385Z,1007.79
2023-01-30T09:10:20.713Z,1007.79
2023-01-30T09:11:06.375Z,1007.79
2023-01-30T09:11:52.397Z,1007.58
2023-01-30T09:12:38.379Z,1007.79
2023-01-30T09:13:24.371Z,1007.89
2023-01-30T09:14:10.391Z,1007.89
2023-01-30T09:14:56.470Z,1007.69
2023-01-30T09:15:42.572Z,1007.58
2023-01-30T09:16:28.350Z,1007.79